createdAt,value
2023-01-07T00:02:09.013Z,99866.91
2023-01-07T00:04:37.292Z,99868.34
2023-01-07T00:07:05.239Z,99862.28
2023-01-07T00:09:33.208Z,99860.59
2023-01-07T00:12:01.475Z,99872.00
2023-01-07T00:14:29.396Z,99875.56
2023-01-07T00:16:57.305Z,99866.47
2023-01-07T00:19:25.649Z,99870.81
2023-01-07T00:21:53.690Z,99872.81
2023-01-07T00:24:21.588Z,99875.44
2023-01-07T00:26:49.927Z,99881.63
2023-01-07T00:29:18.901Z,99876.34
2023-01-07T00:31:47.090Z,99877.84
2023-01-07T00:34:16.078Z,99888.47
2023-01-07T00:36:46.130Z,99881.63
2023-01-07T00:39:21.434Z,99890.34
2023-01-07T00:42:08.796Z,99894.09
2023-01-07T00:44:38.132Z,99881.84
2023-01-07T00:47:06.670Z,99887.94
2023-01-07T00:49:34.689Z,99885.41
2023-01-07T00:52:02.620Z,99890.34
2023-01-07T00:54:31.057Z,99892.94
2023-01-07T00:56:58.988Z,99889.34
2023-01-07T00:59:27.114Z,99890.06
2023-01-07T01:01:55.582Z,99890.25
2023-01-07T01:04:25.599Z,99889.38
2023-01-07T01:06:53.541Z,99897.31
2023-01-07T01:09:22.601Z,99890.53
2023-01-07T01:11:50.686Z,99887.56
2023-01-07T01:14:18.619Z,99888.69
2023-01-07T01:16:46.876Z,99888.56
2023-01-07T01:19:15.472Z,99884.63
2023-01-07T01:21:43.407Z,99878.44
2023-01-07T01:24:11.765Z,99889.72
2023-01-07T01:26:39.771Z,99884.19
2023-01-07T01:29:07.788Z,99885.28
2023-01-07T01:31:36.262Z,99885.84
2023-01-07T01:34:04.709Z,99884.75
2023-01-07T01:36:32.980Z,99888.78
2023-01-07T01:39:01.349Z,99888.38
2023-01-07T01:41:29.927Z,99887.41
2023-01-07T01:43:58.554Z,99880.47
2023-01-07T01:46:42.456Z,99872.69
2023-01-07T01:49:17.234Z,99870.66
2023-01-07T01:51:47.599Z,99868.53
2023-01-07T01:54:16.566Z,99862.97
2023-01-07T01:56:48.747Z,99864.03
2023-01-07T01:59:23.742Z,99856.87
2023-01-07T02:01:53.873Z,99851.88
2023-01-07T02:04:23.746Z,99857.25
2023-01-07T02:06:59.220Z,99849.28
2023-01-07T02:09:28.146Z,99851.94
2023-01-07T02:12:05.337Z,99847.50
2023-01-07T02:14:39.614Z,99851.41
2023-01-07T02:17:41.845Z,99854.81
2023-01-07T02:20:16.051Z,99850.41
2023-01-07T02:23:09.427Z,99849.06
2023-01-07T02:26:08.580Z,99843.94
2023-01-07T02:29:04.686Z,99835.50
2023-01-07T02:32:09.012Z,99839.06
2023-01-07T02:34:43.687Z,99835.97
2023-01-07T02:37:11.636Z,99833.13
2023-01-07T02:40:04.788Z,99832.47
2023-01-07T02:43:21.573Z,99841.03
2023-01-07T02:45:57.630Z,99840.63
2023-01-07T02:48:26.202Z,99840.13
2023-01-07T02:50:54.467Z,99839.56
2023-01-07T02:53:22.504Z,99843.63
2023-01-07T02:56:24.870Z,99837.72
2023-01-07T02:59:45.272Z,99848.13
2023-01-07T03:02:28.399Z,99837.34
2023-01-07T03:05:06.737Z,99835.91
2023-01-07T03:07:53.589Z,99839.59
2023-01-07T03:10:30.769Z,99837.75
2023-01-07T03:13:04.736Z,99835.63
2023-01-07T03:15:37.540Z,99827.94
2023-01-07T03:18:19.333Z,99828.31
2023-01-07T03:20:50.298Z,99817.97
2023-01-07T03:23:21.754Z,99823.13
2023-01-07T03:25:52.238Z,99823.72
2023-01-07T03:28:25.169Z,99814.91
2023-01-07T03:30:55.365Z,99822.97
2023-01-07T03:33:53.473Z,99812.94
2023-01-07T03:36:25.561Z,99815.03
2023-01-07T03:38:55.871Z,99811.37
2023-01-07T03:41:43.287Z,99808.31
2023-01-07T03:44:11.321Z,99810.94
2023-01-07T03:46:39.648Z,99811.47
2023-01-07T03:49:07.820Z,99805.97
2023-01-07T03:51:36.161Z,99809.44
2023-01-07T03:54:05.160Z,99812.59
2023-01-07T03:56:33.219Z,99801.28
2023-01-07T03:59:01.047Z,99809.75
2023-01-07T04:01:30.860Z,99804.75
2023-01-07T04:04:00.727Z,99808.28
2023-01-07T04:06:30.887Z,99814.97
2023-01-07T04:08:59.363Z,99814.78
2023-01-07T04:11:28.107Z,99809.63
2023-01-07T04:13:57.435Z,99813.25
2023-01-07T04:16:25.833Z,99819.44
2023-01-07T04:18:55.372Z,99819.97
2023-01-07T04:21:23.380Z,99814.97
2023-01-07T04:23:51.648Z,99812.94
2023-01-07T04:26:19.681Z,99818.75
2023-01-07T04:28:48.213Z,99815.41
2023-01-07T04:31:16.970Z,99819.59
2023-01-07T04:33:45.691Z,99811.94
2023-01-07T04:36:13.979Z,99816.88
2023-01-07T04:38:42.608Z,99815.03
2023-01-07T04:41:10.688Z,99814.53
2023-01-07T04:43:38.788Z,99818.66
2023-01-07T04:46:07.536Z,99818.56
2023-01-07T04:48:36.353Z,99821.69
2023-01-07T04:51:04.761Z,99818.28
2023-01-07T04:53:33.355Z,99812.56
2023-01-07T04:56:01.459Z,99818.16
2023-01-07T04:58:30.084Z,99815.22
2023-01-07T05:01:03.856Z,99814.09
2023-01-07T05:03:34.685Z,99818.13
2023-01-07T05:06:03.871Z,99819.50
2023-01-07T05:08:32.494Z,99824.66
2023-01-07T05:11:00.679Z,99825.16
2023-01-07T05:13:29.010Z,99829.69
2023-01-07T05:15:57.139Z,99826.59
2023-01-07T05:18:25.468Z,99830.12
2023-01-07T05:20:53.891Z,99822.03
2023-01-07T05:23:21.958Z,99826.72
2023-01-07T05:25:50.278Z,99830.16
2023-01-07T05:28:18.888Z,99823.31
2023-01-07T05:30:47.804Z,99821.25
2023-01-07T05:33:15.922Z,99819.56
2023-01-07T05:35:44.313Z,99826.22
2023-01-07T05:38:12.224Z,99830.59
2023-01-07T05:40:42.049Z,99833.50
2023-01-07T05:43:11.007Z,99841.87
2023-01-07T05:45:38.970Z,99836.13
2023-01-07T05:48:07.056Z,99844.66
2023-01-07T05:50:35.297Z,99834.25
2023-01-07T05:53:03.270Z,99839.75
2023-01-07T05:55:31.217Z,99837.66
2023-01-07T05:57:59.643Z,99843.09
2023-01-07T06:00:27.562Z,99841.66
2023-01-07T06:02:55.836Z,99839.13
2023-01-07T06:05:23.759Z,99840.81
2023-01-07T06:07:51.754Z,99836.13
2023-01-07T06:10:20.007Z,99840.19
2023-01-07T06:12:47.959Z,99832.09
2023-01-07T06:15:15.920Z,99832.69
2023-01-07T06:17:44.231Z,99831.63
2023-01-07T06:20:15.233Z,99835.53
2023-01-07T06:22:43.576Z,99845.53
2023-01-07T06:25:12.630Z,99840.97
2023-01-07T06:27:41.130Z,99842.19
2023-01-07T06:30:10.809Z,99841.37
2023-01-07T06:32:40.650Z,99841.09
2023-01-07T06:35:10.160Z,99841.66
2023-01-07T06:37:38.949Z,99837.00
2023-01-07T06:40:09.045Z,99844.09
2023-01-07T06:42:37.029Z,99825.87
2023-01-07T06:45:05.454Z,99813.53
2023-01-07T06:47:33.727Z,99814.22
2023-01-07T06:50:01.748Z,99824.06
2023-01-07T06:52:29.818Z,99830.03
2023-01-07T06:54:58.098Z,99828.13
2023-01-07T06:57:26.800Z,99830.88
2023-01-07T06:59:54.773Z,99835.03
2023-01-07T07:02:25.816Z,99840.84
2023-01-07T07:04:54.229Z,99844.97
2023-01-07T07:07:22.287Z,99840.06
2023-01-07T07:09:50.926Z,99844.00
2023-01-07T07:12:19.746Z,99844.00
2023-01-07T07:14:47.797Z,99850.38
2023-01-07T07:17:16.727Z,99852.06
2023-01-07T07:19:44.753Z,99851.34
2023-01-07T07:22:12.672Z,99852.12
2023-01-07T07:24:40.995Z,99862.63
2023-01-07T07:27:08.973Z,99858.66
2023-01-07T07:29:36.878Z,99865.06
2023-01-07T07:32:05.524Z,99864.59
2023-01-07T07:34:35.753Z,99866.94
2023-01-07T07:37:04.306Z,99868.62
2023-01-07T07:39:33.919Z,99870.53
2023-01-07T07:42:05.553Z,99863.87
2023-01-07T07:44:33.933Z,99862.22
2023-01-07T07:47:02.082Z,99865.00
2023-01-07T07:49:30.490Z,99872.56
2023-01-07T07:51:58.739Z,99865.56
2023-01-07T07:54:28.280Z,99858.22
2023-01-07T07:56:58.559Z,99859.50
2023-01-07T07:59:27.137Z,99862.13
2023-01-07T08:01:55.318Z,99866.50
2023-01-07T08:04:23.651Z,99867.25
2023-01-07T08:06:51.668Z,99864.37
2023-01-07T08:09:19.932Z,99864.28
2023-01-07T08:11:48.228Z,99857.53
2023-01-07T08:14:16.149Z,99871.50
2023-01-07T08:16:44.086Z,99864.44
2023-01-07T08:19:12.516Z,99857.78
2023-01-07T08:21:40.421Z,99868.88
2023-01-07T08:24:08.526Z,99862.53
2023-01-07T08:26:36.856Z,99853.78
2023-01-07T08:29:04.728Z,99857.38
2023-01-07T08:31:32.820Z,99856.75
2023-01-07T08:34:01.365Z,99849.97
2023-01-07T08:36:29.258Z,99851.00
2023-01-07T08:38:57.259Z,99855.53
2023-01-07T08:41:26.098Z,99857.06
2023-01-07T08:43:54.242Z,99855.03
2023-01-07T08:46:22.607Z,99851.13
2023-01-07T08:48:51.238Z,99848.63
2023-01-07T08:51:19.199Z,99848.56
2023-01-07T08:53:47.977Z,99842.28
2023-01-07T08:56:16.278Z,99843.03
2023-01-07T08:58:44.276Z,99840.25
2023-01-07T09:01:12.333Z,99837.19
2023-01-07T09:03:40.806Z,99838.66
2023-01-07T09:06:08.812Z,99836.66
2023-01-07T09:08:37.121Z,99843.31
2023-01-07T09:11:05.477Z,99848.16
2023-01-07T09:13:33.435Z,99842.94
2023-01-07T09:16:01.591Z,99839.09
2023-01-07T09:18:30.335Z,99843.97
2023-01-07T09:20:58.309Z,99845.34
2023-01-07T09:23:26.247Z,99832.22
2023-01-07T09:25:54.547Z,99836.94
2023-01-07T09:28:22.653Z,99836.03
2023-01-07T09:30:50.591Z,99836.06
2023-01-07T09:33:18.815Z,99831.09
2023-01-07T09:35:46.807Z,99832.66
2023-01-07T09:38:14.903Z,99825.44
2023-01-07T09:40:44.827Z,99823.13
2023-01-07T09:43:18.900Z,99821.97
2023-01-07T09:45:51.241Z,99822.22
2023-01-07T09:48:34.830Z,99813.81
2023-01-07T09:51:06.168Z,99810.91
2023-01-07T09:53:46.790Z,99806.06
2023-01-07T09:56:30.950Z,99803.56
2023-01-07T09:59:01.019Z,99792.31
2023-01-07T10:01:58.088Z,99793.81
2023-01-07T10:04:38.825Z,99793.88
2023-01-07T10:07:27.883Z,99794.28
2023-01-07T10:10:18.342Z,99792.47
2023-01-07T10:12:51.163Z,99787.19
2023-01-07T10:15:41.530Z,99794.72
2023-01-07T10:18:21.646Z,99788.78
2023-01-07T10:21:16.282Z,99792.53
2023-01-07T10:23:49.965Z,99790.56
2023-01-07T10:26:30.955Z,99778.41
2023-01-07T10:29:05.505Z,99781.50
2023-01-07T10:31:34.070Z,99784.56
2023-01-07T10:34:02.306Z,99777.84
2023-01-07T10:36:46.237Z,99774.41
2023-01-07T10:39:22.083Z,99768.50
2023-01-07T10:42:39.715Z,99762.44
2023-01-07T10:45:41.890Z,99767.59
2023-01-07T10:48:35.818Z,99768.81
2023-01-07T10:51:11.541Z,99763.84
2023-01-07T10:54:00.731Z,99756.66
2023-01-07T10:56:40.984Z,99747.09
2023-01-07T10:59:16.237Z,99747.53
2023-01-07T11:01:52.866Z,99747.22
2023-01-07T11:04:21.480Z,99745.25
2023-01-07T11:06:52.859Z,99738.81
2023-01-07T11:09:42.918Z,99742.28
2023-01-07T11:12:33.208Z,99741.22
2023-01-07T11:15:05.242Z,99739.63
2023-01-07T11:17:40.826Z,99726.06
2023-01-07T11:20:09.654Z,99729.97
2023-01-07T11:22:39.269Z,99723.97
2023-01-07T11:25:29.086Z,99725.88
2023-01-07T11:28:00.124Z,99724.13
2023-01-07T11:30:30.041Z,99717.97
2023-01-07T11:33:06.621Z,99713.53
2023-01-07T11:35:35.334Z,99707.75
2023-01-07T11:38:28.811Z,99703.53
2023-01-07T11:41:00.681Z,99705.91
2023-01-07T11:43:39.278Z,99707.12
2023-01-07T11:46:21.460Z,99703.13
2023-01-07T11:48:58.400Z,99695.06
2023-01-07T11:51:27.432Z,99685.53
2023-01-07T11:53:57.864Z,99680.59
2023-01-07T11:56:34.257Z,99686.06
2023-01-07T11:59:29.642Z,99672.09
2023-01-07T12:01:59.830Z,99666.09
2023-01-07T12:04:36.283Z,99676.50
2023-01-07T12:07:14.474Z,99673.97
2023-01-07T12:09:44.550Z,99673.25
2023-01-07T12:12:37.215Z,99663.81
2023-01-07T12:15:18.015Z,99659.34
2023-01-07T12:17:48.243Z,99657.56
2023-01-07T12:20:39.698Z,99658.78
2023-01-07T12:23:43.160Z,99651.53
2023-01-07T12:26:16.718Z,99653.47
2023-01-07T12:28:56.591Z,99645.47
2023-01-07T12:31:36.889Z,99642.13
2023-01-07T12:34:11.056Z,99647.44
2023-01-07T12:36:54.691Z,99647.91
2023-01-07T12:39:28.045Z,99644.69
2023-01-07T12:42:02.904Z,99641.53
2023-01-07T12:44:31.652Z,99641.41
2023-01-07T12:47:30.832Z,99638.94
2023-01-07T12:50:14.023Z,99630.78
2023-01-07T12:52:57.803Z,99628.78
2023-01-07T12:55:43.541Z,99631.56
2023-01-07T12:58:40.543Z,99627.44
2023-01-07T13:01:26.321Z,99620.53
2023-01-07T13:04:12.416Z,99618.41
2023-01-07T13:06:45.421Z,99621.31
2023-01-07T13:09:24.795Z,99617.69
2023-01-07T13:12:45.515Z,99618.44
2023-01-07T13:15:22.956Z,99614.47
2023-01-07T13:17:54.158Z,99617.12
2023-01-07T13:20:35.486Z,99614.44
2023-01-07T13:23:04.654Z,99612.19
2023-01-07T13:25:38.826Z,99616.34
2023-01-07T13:28:22.370Z,99616.75
2023-01-07T13:31:07.568Z,99605.47
2023-01-07T13:33:51.937Z,99606.19
2023-01-07T13:36:35.196Z,99616.59
2023-01-07T13:39:22.488Z,99611.84
2023-01-07T13:42:09.247Z,99613.19
2023-01-07T13:44:52.508Z,99612.13
2023-01-07T13:47:23.146Z,99614.13
2023-01-07T13:49:57.767Z,99614.56
2023-01-07T13:52:29.263Z,99602.44
2023-01-07T13:55:02.567Z,99610.38
2023-01-07T13:57:30.989Z,99613.94
2023-01-07T14:00:00.745Z,99609.59
2023-01-07T14:02:29.893Z,99611.97
2023-01-07T14:05:07.836Z,99611.78
2023-01-07T14:07:50.949Z,99622.00
2023-01-07T14:10:29.620Z,99620.00
2023-01-07T14:13:15.999Z,99615.94
2023-01-07T14:16:11.869Z,99619.59
2023-01-07T14:19:24.273Z,99619.81
2023-01-07T14:22:01.495Z,99622.81
2023-01-07T14:24:54.426Z,99623.06
2023-01-07T14:27:53.107Z,99621.50
2023-01-07T14:30:43.340Z,99617.75
2023-01-07T14:33:20.810Z,99612.41
2023-01-07T14:36:08.985Z,99609.69
2023-01-07T14:38:37.157Z,99607.84
2023-01-07T14:41:16.441Z,99607.41
2023-01-07T14:43:47.399Z,99614.94
2023-01-07T14:46:38.335Z,99604.66
2023-01-07T14:49:12.843Z,99605.13
2023-01-07T14:51:46.886Z,99608.34
2023-01-07T14:54:33.457Z,99602.41
2023-01-07T14:57:07.708Z,99603.22
2023-01-07T14:59:56.067Z,99600.75
2023-01-07T15:03:01.594Z,99607.63
2023-01-07T15:05:35.649Z,99611.84
2023-01-07T15:08:26.537Z,99605.31
2023-01-07T15:11:14.381Z,99607.25
2023-01-07T15:14:04.468Z,99613.19
2023-01-07T15:16:34.692Z,99611.41
2023-01-07T15:19:02.768Z,99609.66
2023-01-07T15:21:44.553Z,99612.19
2023-01-07T15:24:40.679Z,99608.53
2023-01-07T15:27:15.511Z,99604.37
2023-01-07T15:29:52.745Z,99601.03
2023-01-07T15:32:35.765Z,99611.28
2023-01-07T15:35:22.086Z,99601.62
2023-01-07T15:37:51.576Z,99607.84
2023-01-07T15:40:25.603Z,99613.09
2023-01-07T15:42:54.779Z,99622.66
2023-01-07T15:45:25.700Z,99619.16
2023-01-07T15:48:06.059Z,99627.16
2023-01-07T15:50:37.544Z,99621.75
2023-01-07T15:53:11.868Z,99626.00
2023-01-07T15:55:49.774Z,99622.63
2023-01-07T15:58:20.717Z,99625.28
2023-01-07T16:00:51.457Z,99616.66
2023-01-07T16:03:20.957Z,99624.47
2023-01-07T16:05:49.175Z,99617.56
2023-01-07T16:08:39.368Z,99617.66
2023-01-07T16:11:20.884Z,99622.91
2023-01-07T16:14:02.752Z,99624.50
2023-01-07T16:16:32.644Z,99626.22
2023-01-07T16:19:02.396Z,99625.53
2023-01-07T16:21:41.677Z,99616.66
2023-01-07T16:24:16.371Z,99623.84
2023-01-07T16:26:51.702Z,99619.50
2023-01-07T16:29:24.109Z,99623.84
2023-01-07T16:31:53.049Z,99619.53
2023-01-07T16:34:24.112Z,99621.25
2023-01-07T16:36:55.742Z,99619.50
2023-01-07T16:39:35.618Z,99619.53
2023-01-07T16:42:23.459Z,99618.66
2023-01-07T16:44:51.638Z,99618.66
2023-01-07T16:47:25.429Z,99619.53
2023-01-07T16:50:03.229Z,99621.22
2023-01-07T16:52:34.916Z,99615.16
2023-01-07T16:55:02.906Z,99621.25
2023-01-07T16:57:42.576Z,99619.53
2023-01-07T17:00:20.594Z,99622.09
2023-01-07T17:02:49.164Z,99623.78
2023-01-07T17:05:32.499Z,99618.63
2023-01-07T17:08:06.838Z,99621.03
2023-01-07T17:10:36.820Z,99614.19
2023-01-07T17:13:27.789Z,99610.69
2023-01-07T17:16:15.562Z,99617.59
2023-01-07T17:18:43.974Z,99622.84
2023-01-07T17:21:39.540Z,99617.63
2023-01-07T17:24:29.850Z,99624.47
2023-01-07T17:27:00.152Z,99631.44
2023-01-07T17:29:35.200Z,99626.81
2023-01-07T17:32:05.703Z,99624.16
2023-01-07T17:34:34.092Z,99624.31
2023-01-07T17:37:02.031Z,99629.25
2023-01-07T17:39:29.974Z,99631.69
2023-01-07T17:42:16.730Z,99638.28
2023-01-07T17:44:45.889Z,99633.19
2023-01-07T17:47:15.350Z,99641.84
2023-01-07T17:49:43.335Z,99644.19
2023-01-07T17:52:11.518Z,99642.66
2023-01-07T17:54:40.167Z,99646.22
2023-01-07T17:57:11.477Z,99645.50
2023-01-07T17:59:39.839Z,99645.50
2023-01-07T18:02:14.081Z,99653.41
2023-01-07T18:04:42.567Z,99643.63
2023-01-07T18:07:16.853Z,99642.13
2023-01-07T18:09:45.163Z,99650.72
2023-01-07T18:12:30.545Z,99642.13
2023-01-07T18:15:01.864Z,99644.78
2023-01-07T18:17:30.341Z,99643.91
2023-01-07T18:19:58.737Z,99645.69
2023-01-07T18:22:26.766Z,99651.75
2023-01-07T18:24:54.807Z,99656.13
2023-01-07T18:27:23.297Z,99654.03
2023-01-07T18:29:51.227Z,99651.84
2023-01-07T18:32:19.297Z,99651.75
2023-01-07T18:34:50.968Z,99650.09
2023-01-07T18:37:19.007Z,99643.25
2023-01-07T18:39:47.359Z,99644.00
2023-01-07T18:42:16.088Z,99651.88
2023-01-07T18:44:44.120Z,99650.97
2023-01-07T18:47:12.627Z,99653.62
2023-01-07T18:49:40.516Z,99653.62
2023-01-07T18:52:09.210Z,99653.66
2023-01-07T18:54:39.517Z,99654.31
2023-01-07T18:57:07.888Z,99655.16
2023-01-07T18:59:35.870Z,99648.44
2023-01-07T19:02:04.345Z,99647.56
2023-01-07T19:04:34.596Z,99654.44
2023-01-07T19:07:03.674Z,99645.84
2023-01-07T19:09:32.026Z,99647.31
2023-01-07T19:12:00.392Z,99641.41
2023-01-07T19:14:28.447Z,99647.53
2023-01-07T19:16:57.218Z,99640.75
2023-01-07T19:19:25.372Z,99642.37
2023-01-07T19:21:54.283Z,99647.41
2023-01-07T19:24:24.378Z,99636.91
2023-01-07T19:26:52.889Z,99637.19
2023-01-07T19:29:21.174Z,99638.81
2023-01-07T19:31:49.746Z,99642.09
2023-01-07T19:34:18.668Z,99643.91
2023-01-07T19:36:47.417Z,99633.59
2023-01-07T19:39:19.713Z,99624.72
2023-01-07T19:41:47.936Z,99637.03
2023-01-07T19:44:16.752Z,99629.41
2023-01-07T19:46:48.753Z,99632.03
2023-01-07T19:49:17.727Z,99632.84
2023-01-07T19:51:46.327Z,99628.47
2023-01-07T19:54:17.859Z,99638.53
2023-01-07T19:56:47.807Z,99640.47
2023-01-07T19:59:16.897Z,99631.06
2023-01-07T20:01:46.332Z,99635.31
2023-01-07T20:04:14.779Z,99632.00
2023-01-07T20:06:44.052Z,99631.94
2023-01-07T20:09:12.821Z,99627.78
2023-01-07T20:11:48.692Z,99626.66
2023-01-07T20:14:17.997Z,99627.59
2023-01-07T20:16:46.490Z,99620.87
2023-01-07T20:19:14.641Z,99624.16
2023-01-07T20:21:42.714Z,99608.69
2023-01-07T20:24:13.438Z,99621.50
2023-01-07T20:26:41.996Z,99608.69
2023-01-07T20:29:10.980Z,99614.72
2023-01-07T20:31:38.942Z,99606.78
2023-01-07T20:34:07.150Z,99600.97
2023-01-07T20:36:35.513Z,99601.84
2023-01-07T20:39:06.239Z,99599.75
2023-01-07T20:41:35.282Z,99598.22
2023-01-07T20:44:05.343Z,99597.53
2023-01-07T20:46:36.711Z,99594.72
2023-01-07T20:49:05.098Z,99594.84
2023-01-07T20:51:34.138Z,99594.78
2023-01-07T20:54:02.308Z,99593.97
2023-01-07T20:56:33.614Z,99597.44
2023-01-07T20:59:02.466Z,99592.28
2023-01-07T21:01:31.127Z,99597.34
2023-01-07T21:03:59.512Z,99604.59
2023-01-07T21:06:27.547Z,99611.28
2023-01-07T21:08:56.146Z,99603.47
2023-01-07T21:11:25.010Z,99606.13
2023-01-07T21:13:56.205Z,99608.72
2023-01-07T21:16:25.858Z,99607.13
2023-01-07T21:18:54.182Z,99605.28
2023-01-07T21:21:25.418Z,99606.97
2023-01-07T21:23:54.598Z,99601.03
2023-01-07T21:26:23.824Z,99594.06
2023-01-07T21:28:56.272Z,99599.28
2023-01-07T21:31:26.215Z,99599.28
2023-01-07T21:33:56.264Z,99591.50
2023-01-07T21:36:25.942Z,99584.66
2023-01-07T21:38:56.785Z,99588.00
2023-01-07T21:41:25.775Z,99591.56
2023-01-07T21:43:54.024Z,99579.50
2023-01-07T21:46:23.361Z,99571.53
2023-01-07T21:48:52.160Z,99571.69
2023-01-07T21:51:22.918Z,99571.69
2023-01-07T21:53:58.058Z,99579.44
2023-01-07T21:56:29.005Z,99570.88
2023-01-07T21:58:57.292Z,99581.09
2023-01-07T22:01:28.906Z,99571.72
2023-01-07T22:03:59.144Z,99578.41
2023-01-07T22:06:29.826Z,99561.31
2023-01-07T22:09:00.391Z,99566.41
2023-01-07T22:11:28.753Z,99563.91
2023-01-07T22:13:58.504Z,99565.59
2023-01-07T22:16:29.399Z,99561.41
2023-01-07T22:18:58.058Z,99557.88
2023-01-07T22:21:26.517Z,99546.66
2023-01-07T22:23:54.410Z,99547.53
2023-01-07T22:26:22.700Z,99542.31
2023-01-07T22:28:56.103Z,99552.75
2023-01-07T22:31:30.569Z,99554.31
2023-01-07T22:33:59.080Z,99546.66
2023-01-07T22:36:32.340Z,99550.16
2023-01-07T22:39:04.209Z,99538.00
2023-01-07T22:41:33.865Z,99543.97
2023-01-07T22:44:12.978Z,99536.28
2023-01-07T22:46:43.401Z,99522.41
2023-01-07T22:49:11.812Z,99531.94
2023-01-07T22:51:42.918Z,99533.63
2023-01-07T22:54:12.044Z,99528.47
2023-01-07T22:56:41.096Z,99521.47
2023-01-07T22:59:09.384Z,99526.75
2023-01-07T23:01:38.485Z,99529.34
2023-01-07T23:04:06.743Z,99517.22
2023-01-07T23:06:34.712Z,99518.94
2023-01-07T23:09:03.160Z,99518.88
2023-01-07T23:11:51.169Z,99516.34
2023-01-07T23:14:23.256Z,99511.09
2023-01-07T23:16:52.188Z,99505.97
2023-01-07T23:19:21.092Z,99506.84
2023-01-07T23:21:51.554Z,99505.91
2023-01-07T23:24:20.025Z,99499.06
2023-01-07T23:26:50.592Z,99512.72
2023-01-07T23:29:19.441Z,99503.25
2023-01-07T23:31:47.580Z,99506.75
2023-01-07T23:34:16.223Z,99498.09
2023-01-07T23:36:44.613Z,99498.13
2023-01-07T23:39:13.161Z,99495.59
2023-01-07T23:41:41.473Z,99502.56
2023-01-07T23:44:09.483Z,99498.16
2023-01-07T23:46:37.560Z,99490.41
2023-01-07T23:49:05.827Z,99491.16
2023-01-07T23:51:33.815Z,99492.13
2023-01-07T23:54:01.763Z,99487.84
2023-01-07T23:56:30.204Z,99485.13
2023-01-07T23:58:58.121Z,99484.38
